Terminal Aerodrome Forecast
Issued by NWS Flagstaff, AZ

Home | Current Version | Previous Version | Text Only | Print | Product List | Glossary On
Versions: 1 2 3 4 5 6 7 8 9 10 11 12 13
761
FTUS45 KFGZ 290535
TAFINW
TAF
KINW 290535Z 2906/3006 19008KT P6SM SKC
     FM291700 25010G20KT P6SM SKC
     FM300400 23011KT P6SM SKC=

USA.gov is the U.S. government's official web portal to all federal, state and local government web resources and services.